sensor_id;sensor_type;location;lat;lon;timestamp;temperature;humidity
8463;DHT22;4268;52.506;13.462;2023-11-21T00:02:02;8.60;99.90
8463;DHT22;4268;52.506;13.462;2023-11-21T00:04:27;8.60;99.90
8463;DHT22;4268;52.506;13.462;2023-11-21T00:06:53;8.60;99.90
8463;DHT22;4268;52.506;13.462;2023-11-21T00:09:19;8.50;99.90
8463;DHT22;4268;52.506;13.462;2023-11-21T00:11:45;8.50;99.90
8463;DHT22;4268;52.506;13.462;2023-11-21T00:14:11;8.40;99.90
8463;DHT22;4268;52.506;13.462;2023-11-21T00:16:37;8.40;99.90
8463;DHT22;4268;52.506;13.462;2023-11-21T00:19:02;8.30;99.90
8463;DHT22;4268;52.506;13.462;2023-11-21T00:21:28;8.30;99.90
8463;DHT22;4268;52.506;13.462;2023-11-21T00:23:53;8.30;99.90
8463;DHT22;4268;52.506;13.462;2023-11-21T00:26:19;8.30;99.90
8463;DHT22;4268;52.506;13.462;2023-11-21T00:28:44;8.20;99.90
8463;DHT22;4268;52.506;13.462;2023-11-21T00:31:10;8.20;99.90
8463;DHT22;4268;52.506;13.462;2023-11-21T00:33:36;8.20;99.90
8463;DHT22;4268;52.506;13.462;2023-11-21T00:36:02;8.10;99.90
8463;DHT22;4268;52.506;13.462;2023-11-21T00:38:27;8.10;99.90
8463;DHT22;4268;52.506;13.462;2023-11-21T00:40:53;8.10;99.90
8463;DHT22;4268;52.506;13.462;2023-11-21T00:43:22;8.10;99.90
8463;DHT22;4268;52.506;13.462;2023-11-21T00:45:48;8.00;99.90
8463;DHT22;4268;52.506;13.462;2023-11-21T00:48:14;8.00;99.90
8463;DHT22;4268;52.506;13.462;2023-11-21T00:50:40;8.00;99.90
8463;DHT22;4268;52.506;13.462;2023-11-21T00:53:06;8.20;99.90
8463;DHT22;4268;52.506;13.462;2023-11-21T00:55:33;7.90;99.90
8463;DHT22;4268;52.506;13.462;2023-11-21T00:57:58;7.80;99.90
8463;DHT22;4268;52.506;13.462;2023-11-21T01:00:25;7.80;99.90
8463;DHT22;4268;52.506;13.462;2023-11-21T01:02:50;7.80;99.90
8463;DHT22;4268;52.506;13.462;2023-11-21T01:05:16;7.80;99.90
8463;DHT22;4268;52.506;13.462;2023-11-21T01:07:42;7.80;99.90
8463;DHT22;4268;52.506;13.462;2023-11-21T01:10:07;7.80;99.90
8463;DHT22;4268;52.506;13.462;2023-11-21T01:12:37;7.70;99.90
8463;DHT22;4268;52.506;13.462;2023-11-21T01:15:04;7.70;99.90
8463;DHT22;4268;52.506;13.462;2023-11-21T01:17:32;7.60;99.90
8463;DHT22;4268;52.506;13.462;2023-11-21T01:20:00;7.60;99.90
8463;DHT22;4268;52.506;13.462;2023-11-21T01:22:25;7.60;99.90
8463;DHT22;4268;52.506;13.462;2023-11-21T01:24:52;7.60;99.90
8463;DHT22;4268;52.506;13.462;2023-11-21T01:27:18;7.60;99.90
8463;DHT22;4268;52.506;13.462;2023-11-21T01:29:44;7.60;99.90
8463;DHT22;4268;52.506;13.462;2023-11-21T01:32:10;7.60;99.90
8463;DHT22;4268;52.506;13.462;2023-11-21T01:34:35;7.60;99.90
8463;DHT22;4268;52.506;13.462;2023-11-21T01:37:01;7.50;99.90
8463;DHT22;4268;52.506;13.462;2023-11-21T01:39:30;7.50;99.90
8463;DHT22;4268;52.506;13.462;2023-11-21T01:41:56;7.50;99.90
8463;DHT22;4268;52.506;13.462;2023-11-21T01:44:26;7.50;99.90
8463;DHT22;4268;52.506;13.462;2023-11-21T01:46:52;7.40;99.90
8463;DHT22;4268;52.506;13.462;2023-11-21T01:49:18;7.40;99.90
8463;DHT22;4268;52.506;13.462;2023-11-21T01:51:48;7.40;99.90
8463;DHT22;4268;52.506;13.462;2023-11-21T01:54:15;7.40;99.90
8463;DHT22;4268;52.506;13.462;2023-11-21T01:56:43;7.40;99.90
8463;DHT22;4268;52.506;13.462;2023-11-21T01:59:12;7.30;99.90
8463;DHT22;4268;52.506;13.462;2023-11-21T02:01:39;7.30;99.90
8463;DHT22;4268;52.506;13.462;2023-11-21T02:04:06;7.30;99.90
8463;DHT22;4268;52.506;13.462;2023-11-21T02:06:33;7.20;99.90
8463;DHT22;4268;52.506;13.462;2023-11-21T02:08:59;7.20;99.90
8463;DHT22;4268;52.506;13.462;2023-11-21T02:11:25;7.20;99.90
8463;DHT22;4268;52.506;13.462;2023-11-21T02:13:52;7.20;99.90
8463;DHT22;4268;52.506;13.462;2023-11-21T02:16:19;7.20;99.90
8463;DHT22;4268;52.506;13.462;2023-11-21T02:18:47;7.10;99.90
8463;DHT22;4268;52.506;13.462;2023-11-21T02:21:14;7.10;99.90
8463;DHT22;4268;52.506;13.462;2023-11-21T02:23:39;7.10;99.90
8463;DHT22;4268;52.506;13.462;2023-11-21T02:26:09;7.00;99.90
8463;DHT22;4268;52.506;13.462;2023-11-21T02:28:35;7.00;99.90
8463;DHT22;4268;52.506;13.462;2023-11-21T02:31:01;7.50;99.90
8463;DHT22;4268;52.506;13.462;2023-11-21T02:33:28;7.00;99.90
8463;DHT22;4268;52.506;13.462;2023-11-21T02:35:54;7.00;99.90
8463;DHT22;4268;52.506;13.462;2023-11-21T02:38:21;7.00;99.90
8463;DHT22;4268;52.506;13.462;2023-11-21T02:40:46;7.00;99.90
8463;DHT22;4268;52.506;13.462;2023-11-21T02:43:12;7.00;99.90
8463;DHT22;4268;52.506;13.462;2023-11-21T02:45:37;7.00;99.90
8463;DHT22;4268;52.506;13.462;2023-11-21T02:48:03;6.90;99.90
8463;DHT22;4268;52.506;13.462;2023-11-21T02:50:29;7.00;99.90
8463;DHT22;4268;52.506;13.462;2023-11-21T02:52:55;7.00;99.90
8463;DHT22;4268;52.506;13.462;2023-11-21T02:55:23;7.00;99.90
8463;DHT22;4268;52.506;13.462;2023-11-21T02:57:50;7.00;99.90
8463;DHT22;4268;52.506;13.462;2023-11-21T03:00:16;6.90;99.90
8463;DHT22;4268;52.506;13.462;2023-11-21T03:02:42;6.90;99.90
8463;DHT22;4268;52.506;13.462;2023-11-21T03:05:08;6.90;99.90
8463;DHT22;4268;52.506;13.462;2023-11-21T03:07:34;6.90;99.90
8463;DHT22;4268;52.506;13.462;2023-11-21T03:10:00;6.90;99.90
8463;DHT22;4268;52.506;13.462;2023-11-21T03:12:26;6.90;99.90
8463;DHT22;4268;52.506;13.462;2023-11-21T03:14:51;6.90;99.90
8463;DHT22;4268;52.506;13.462;2023-11-21T03:17:17;6.90;99.90
8463;DHT22;4268;52.506;13.462;2023-11-21T03:19:42;6.80;99.90
8463;DHT22;4268;52.506;13.462;2023-11-21T03:22:08;6.80;99.90
8463;DHT22;4268;52.506;13.462;2023-11-21T03:24:34;7.40;99.90
8463;DHT22;4268;52.506;13.462;2023-11-21T03:26:59;6.80;99.90
8463;DHT22;4268;52.506;13.462;2023-11-21T03:29:26;6.80;99.90
8463;DHT22;4268;52.506;13.462;2023-11-21T03:31:51;6.80;99.90
8463;DHT22;4268;52.506;13.462;2023-11-21T03:34:24;6.80;99.90
8463;DHT22;4268;52.506;13.462;2023-11-21T03:36:51;6.80;99.90
8463;DHT22;4268;52.506;13.462;2023-11-21T03:39:16;6.80;99.90
8463;DHT22;4268;52.506;13.462;2023-11-21T03:41:42;6.70;99.90
8463;DHT22;4268;52.506;13.462;2023-11-21T03:44:07;6.70;99.90
8463;DHT22;4268;52.506;13.462;2023-11-21T03:46:33;6.70;99.90
8463;DHT22;4268;52.506;13.462;2023-11-21T03:48:58;6.70;99.90
8463;DHT22;4268;52.506;13.462;2023-11-21T03:51:24;6.60;99.90
8463;DHT22;4268;52.506;13.462;2023-11-21T03:53:49;6.60;99.90
8463;DHT22;4268;52.506;13.462;2023-11-21T03:56:15;6.60;99.90
8463;DHT22;4268;52.506;13.462;2023-11-21T03:58:40;6.60;99.90
8463;DHT22;4268;52.506;13.462;2023-11-21T04:01:06;6.60;99.90
8463;DHT22;4268;52.506;13.462;2023-11-21T04:03:31;6.60;99.90
8463;DHT22;4268;52.506;13.462;2023-11-21T04:05:57;6.60;99.90
8463;DHT22;4268;52.506;13.462;2023-11-21T04:08:22;6.50;99.90
8463;DHT22;4268;52.506;13.462;2023-11-21T04:10:48;6.50;99.90
8463;DHT22;4268;52.506;13.462;2023-11-21T04:13:14;6.50;99.90
8463;DHT22;4268;52.506;13.462;2023-11-21T04:15:39;6.50;99.90
8463;DHT22;4268;52.506;13.462;2023-11-21T04:18:05;6.50;99.90
8463;DHT22;4268;52.506;13.462;2023-11-21T04:20:30;6.50;99.90
8463;DHT22;4268;52.506;13.462;2023-11-21T04:22:56;6.50;99.90
8463;DHT22;4268;52.506;13.462;2023-11-21T04:25:21;6.50;99.90
8463;DHT22;4268;52.506;13.462;2023-11-21T04:27:48;6.50;99.90
8463;DHT22;4268;52.506;13.462;2023-11-21T04:30:15;6.50;99.90
8463;DHT22;4268;52.506;13.462;2023-11-21T04:32:41;6.50;99.90
8463;DHT22;4268;52.506;13.462;2023-11-21T04:35:07;6.50;99.90
8463;DHT22;4268;52.506;13.462;2023-11-21T04:37:34;6.40;99.90
8463;DHT22;4268;52.506;13.462;2023-11-21T04:39:59;6.40;99.90
8463;DHT22;4268;52.506;13.462;2023-11-21T04:42:25;6.40;99.90
8463;DHT22;4268;52.506;13.462;2023-11-21T04:44:50;6.40;99.90
8463;DHT22;4268;52.506;13.462;2023-11-21T04:47:18;6.40;99.90
8463;DHT22;4268;52.506;13.462;2023-11-21T04:49:46;6.40;99.90
8463;DHT22;4268;52.506;13.462;2023-11-21T04:52:12;6.40;99.90
8463;DHT22;4268;52.506;13.462;2023-11-21T04:54:38;6.40;99.90
8463;DHT22;4268;52.506;13.462;2023-11-21T04:57:05;6.40;99.90
8463;DHT22;4268;52.506;13.462;2023-11-21T04:59:33;6.40;99.90
8463;DHT22;4268;52.506;13.462;2023-11-21T05:01:58;6.40;99.90
8463;DHT22;4268;52.506;13.462;2023-11-21T05:04:25;6.40;99.90
8463;DHT22;4268;52.506;13.462;2023-11-21T05:06:51;6.30;99.90
8463;DHT22;4268;52.506;13.462;2023-11-21T05:09:16;6.30;99.90
8463;DHT22;4268;52.506;13.462;2023-11-21T05:11:43;6.30;99.90
8463;DHT22;4268;52.506;13.462;2023-11-21T05:14:09;6.30;99.90
8463;DHT22;4268;52.506;13.462;2023-11-21T05:16:34;6.30;99.90
8463;DHT22;4268;52.506;13.462;2023-11-21T05:19:01;6.30;99.90
8463;DHT22;4268;52.506;13.462;2023-11-21T05:21:27;6.30;99.90
8463;DHT22;4268;52.506;13.462;2023-11-21T05:23:53;6.30;99.90
8463;DHT22;4268;52.506;13.462;2023-11-21T05:26:19;6.30;99.90
8463;DHT22;4268;52.506;13.462;2023-11-21T05:28:44;6.30;99.90
8463;DHT22;4268;52.506;13.462;2023-11-21T05:31:10;6.30;99.90
8463;DHT22;4268;52.506;13.462;2023-11-21T05:33:36;6.30;99.90
8463;DHT22;4268;52.506;13.462;2023-11-21T05:36:02;6.30;99.90
8463;DHT22;4268;52.506;13.462;2023-11-21T05:38:27;6.30;99.90
8463;DHT22;4268;52.506;13.462;2023-11-21T05:40:53;6.30;99.90
8463;DHT22;4268;52.506;13.462;2023-11-21T05:43:19;6.30;99.90
8463;DHT22;4268;52.506;13.462;2023-11-21T05:45:45;6.30;99.90
8463;DHT22;4268;52.506;13.462;2023-11-21T05:48:10;6.20;99.90
8463;DHT22;4268;52.506;13.462;2023-11-21T05:50:36;6.20;99.90
8463;DHT22;4268;52.506;13.462;2023-11-21T05:53:03;6.20;99.90
8463;DHT22;4268;52.506;13.462;2023-11-21T05:55:28;6.20;99.90
8463;DHT22;4268;52.506;13.462;2023-11-21T05:57:54;6.20;99.90
8463;DHT22;4268;52.506;13.462;2023-11-21T06:00:20;6.20;99.90
8463;DHT22;4268;52.506;13.462;2023-11-21T06:02:50;6.20;99.90
8463;DHT22;4268;52.506;13.462;2023-11-21T06:05:20;6.20;99.90
8463;DHT22;4268;52.506;13.462;2023-11-21T06:07:49;6.20;99.90
8463;DHT22;4268;52.506;13.462;2023-11-21T06:10:14;6.20;99.90
8463;DHT22;4268;52.506;13.462;2023-11-21T06:12:40;6.20;99.90
8463;DHT22;4268;52.506;13.462;2023-11-21T06:15:08;6.20;99.90
8463;DHT22;4268;52.506;13.462;2023-11-21T06:17:35;6.20;99.90
8463;DHT22;4268;52.506;13.462;2023-11-21T06:20:05;6.20;99.90
8463;DHT22;4268;52.506;13.462;2023-11-21T06:22:38;6.20;99.90
8463;DHT22;4268;52.506;13.462;2023-11-21T06:25:05;6.20;99.90
8463;DHT22;4268;52.506;13.462;2023-11-21T06:27:32;6.10;99.90
8463;DHT22;4268;52.506;13.462;2023-11-21T06:29:58;6.10;99.90
8463;DHT22;4268;52.506;13.462;2023-11-21T06:32:23;6.10;99.90
8463;DHT22;4268;52.506;13.462;2023-11-21T06:34:49;6.10;99.90
8463;DHT22;4268;52.506;13.462;2023-11-21T06:37:15;6.10;99.90
8463;DHT22;4268;52.506;13.462;2023-11-21T06:39:40;6.10;99.90
8463;DHT22;4268;52.506;13.462;2023-11-21T06:42:07;6.10;99.90
8463;DHT22;4268;52.506;13.462;2023-11-21T06:44:32;6.10;99.90
8463;DHT22;4268;52.506;13.462;2023-11-21T06:46:59;6.10;99.90
8463;DHT22;4268;52.506;13.462;2023-11-21T06:49:24;6.00;99.90
8463;DHT22;4268;52.506;13.462;2023-11-21T06:51:50;6.10;99.90
8463;DHT22;4268;52.506;13.462;2023-11-21T06:54:15;6.00;99.90
8463;DHT22;4268;52.506;13.462;2023-11-21T06:56:41;6.00;99.90
8463;DHT22;4268;52.506;13.462;2023-11-21T06:59:06;6.00;99.90
8463;DHT22;4268;52.506;13.462;2023-11-21T07:01:32;6.00;99.90
8463;DHT22;4268;52.506;13.462;2023-11-21T07:04:04;6.00;99.90
8463;DHT22;4268;52.506;13.462;2023-11-21T07:06:30;6.00;99.90
8463;DHT22;4268;52.506;13.462;2023-11-21T07:08:56;6.00;99.90
8463;DHT22;4268;52.506;13.462;2023-11-21T07:11:22;6.00;99.90
8463;DHT22;4268;52.506;13.462;2023-11-21T07:13:48;6.00;99.90
8463;DHT22;4268;52.506;13.462;2023-11-21T07:16:13;5.90;99.90
8463;DHT22;4268;52.506;13.462;2023-11-21T07:18:40;6.00;99.90
8463;DHT22;4268;52.506;13.462;2023-11-21T07:21:06;6.00;99.90
8463;DHT22;4268;52.506;13.462;2023-11-21T07:23:31;6.00;99.90
8463;DHT22;4268;52.506;13.462;2023-11-21T07:25:57;6.00;99.90
8463;DHT22;4268;52.506;13.462;2023-11-21T07:28:24;6.00;99.90
8463;DHT22;4268;52.506;13.462;2023-11-21T07:30:51;6.00;99.90
8463;DHT22;4268;52.506;13.462;2023-11-21T07:33:16;6.00;99.90
8463;DHT22;4268;52.506;13.462;2023-11-21T07:35:43;6.00;99.90
8463;DHT22;4268;52.506;13.462;2023-11-21T07:38:08;6.00;99.90
8463;DHT22;4268;52.506;13.462;2023-11-21T07:40:34;6.00;99.90
8463;DHT22;4268;52.506;13.462;2023-11-21T07:42:59;6.00;99.90
8463;DHT22;4268;52.506;13.462;2023-11-21T07:45:25;6.00;99.90
8463;DHT22;4268;52.506;13.462;2023-11-21T07:47:53;6.00;99.90
8463;DHT22;4268;52.506;13.462;2023-11-21T07:50:19;6.00;99.90
8463;DHT22;4268;52.506;13.462;2023-11-21T07:52:45;6.00;99.90
8463;DHT22;4268;52.506;13.462;2023-11-21T07:55:11;6.00;99.90
8463;DHT22;4268;52.506;13.462;2023-11-21T07:57:37;6.00;99.90
8463;DHT22;4268;52.506;13.462;2023-11-21T08:00:04;6.00;99.90
8463;DHT22;4268;52.506;13.462;2023-11-21T08:02:32;6.00;99.90
8463;DHT22;4268;52.506;13.462;2023-11-21T08:04:57;6.00;99.90
8463;DHT22;4268;52.506;13.462;2023-11-21T08:07:23;6.00;99.90
8463;DHT22;4268;52.506;13.462;2023-11-21T08:09:48;6.00;99.90
8463;DHT22;4268;52.506;13.462;2023-11-21T08:12:15;6.00;99.90
8463;DHT22;4268;52.506;13.462;2023-11-21T08:14:41;6.00;99.90
8463;DHT22;4268;52.506;13.462;2023-11-21T08:17:06;6.00;99.90
8463;DHT22;4268;52.506;13.462;2023-11-21T08:19:32;6.00;99.90
8463;DHT22;4268;52.506;13.462;2023-11-21T08:21:58;6.00;99.90
8463;DHT22;4268;52.506;13.462;2023-11-21T08:24:24;5.90;99.90
8463;DHT22;4268;52.506;13.462;2023-11-21T08:26:50;5.90;99.90
8463;DHT22;4268;52.506;13.462;2023-11-21T08:29:17;5.90;99.90
8463;DHT22;4268;52.506;13.462;2023-11-21T08:31:43;5.90;99.90
8463;DHT22;4268;52.506;13.462;2023-11-21T08:34:12;5.90;99.90
8463;DHT22;4268;52.506;13.462;2023-11-21T08:36:42;6.00;99.90
8463;DHT22;4268;52.506;13.462;2023-11-21T08:39:08;6.00;99.90
8463;DHT22;4268;52.506;13.462;2023-11-21T08:41:34;6.00;99.90
8463;DHT22;4268;52.506;13.462;2023-11-21T08:44:00;6.00;99.90
8463;DHT22;4268;52.506;13.462;2023-11-21T08:46:25;6.10;99.90
8463;DHT22;4268;52.506;13.462;2023-11-21T08:48:51;6.10;99.90
8463;DHT22;4268;52.506;13.462;2023-11-21T08:51:17;6.10;99.90
8463;DHT22;4268;52.506;13.462;2023-11-21T08:53:43;6.10;99.90
8463;DHT22;4268;52.506;13.462;2023-11-21T08:56:18;6.10;99.90
8463;DHT22;4268;52.506;13.462;2023-11-21T08:58:45;6.10;99.90
8463;DHT22;4268;52.506;13.462;2023-11-21T09:01:12;6.10;99.90
8463;DHT22;4268;52.506;13.462;2023-11-21T09:03:38;6.10;99.90
8463;DHT22;4268;52.506;13.462;2023-11-21T09:06:03;6.10;99.90
8463;DHT22;4268;52.506;13.462;2023-11-21T09:08:30;6.20;99.90
8463;DHT22;4268;52.506;13.462;2023-11-21T09:10:55;6.20;99.90
8463;DHT22;4268;52.506;13.462;2023-11-21T09:13:21;6.20;99.90
8463;DHT22;4268;52.506;13.462;2023-11-21T09:15:46;6.20;99.90
8463;DHT22;4268;52.506;13.462;2023-11-21T09:18:13;6.10;99.90
8463;DHT22;4268;52.506;13.462;2023-11-21T09:20:39;6.10;99.90
8463;DHT22;4268;52.506;13.462;2023-11-21T09:23:04;6.10;99.90
8463;DHT22;4268;52.506;13.462;2023-11-21T09:25:30;6.10;99.90
8463;DHT22;4268;52.506;13.462;2023-11-21T09:27:55;6.10;99.90
8463;DHT22;4268;52.506;13.462;2023-11-21T09:30:22;6.10;99.90
8463;DHT22;4268;52.506;13.462;2023-11-21T09:32:50;6.10;99.90
8463;DHT22;4268;52.506;13.462;2023-11-21T09:35:16;6.20;99.90
8463;DHT22;4268;52.506;13.462;2023-11-21T09:37:46;6.20;99.90
8463;DHT22;4268;52.506;13.462;2023-11-21T09:40:12;6.30;99.90
8463;DHT22;4268;52.506;13.462;2023-11-21T09:42:40;6.30;99.90
8463;DHT22;4268;52.506;13.462;2023-11-21T09:45:15;6.50;99.90
8463;DHT22;4268;52.506;13.462;2023-11-21T09:47:43;6.60;99.90
8463;DHT22;4268;52.506;13.462;2023-11-21T09:50:09;6.60;99.90
8463;DHT22;4268;52.506;13.462;2023-11-21T09:55:42;6.60;99.90
8463;DHT22;4268;52.506;13.462;2023-11-21T09:58:09;6.60;99.90
8463;DHT22;4268;52.506;13.462;2023-11-21T10:00:40;6.60;99.90
8463;DHT22;4268;52.506;13.462;2023-11-21T10:03:06;6.50;99.90
8463;DHT22;4268;52.506;13.462;2023-11-21T10:05:32;6.60;99.90
8463;DHT22;4268;52.506;13.462;2023-11-21T10:07:59;6.70;99.90
8463;DHT22;4268;52.506;13.462;2023-11-21T10:10:26;6.70;99.90
8463;DHT22;4268;52.506;13.462;2023-11-21T10:12:55;6.60;99.90
8463;DHT22;4268;52.506;13.462;2023-11-21T10:15:22;6.60;99.90
8463;DHT22;4268;52.506;13.462;2023-11-21T10:17:52;6.50;99.90
8463;DHT22;4268;52.506;13.462;2023-11-21T10:20:19;6.40;99.90
8463;DHT22;4268;52.506;13.462;2023-11-21T10:22:45;6.30;99.90
8463;DHT22;4268;52.506;13.462;2023-11-21T10:25:12;6.30;99.90
8463;DHT22;4268;52.506;13.462;2023-11-21T10:27:40;6.20;99.90
8463;DHT22;4268;52.506;13.462;2023-11-21T10:30:07;6.30;99.90
8463;DHT22;4268;52.506;13.462;2023-11-21T10:32:42;6.30;99.90
8463;DHT22;4268;52.506;13.462;2023-11-21T10:35:09;6.20;99.90
8463;DHT22;4268;52.506;13.462;2023-11-21T10:37:41;6.30;99.90
8463;DHT22;4268;52.506;13.462;2023-11-21T10:40:09;6.40;99.90
8463;DHT22;4268;52.506;13.462;2023-11-21T10:42:38;6.40;99.90
8463;DHT22;4268;52.506;13.462;2023-11-21T10:45:05;6.40;99.90
8463;DHT22;4268;52.506;13.462;2023-11-21T10:47:39;6.40;99.90
8463;DHT22;4268;52.506;13.462;2023-11-21T10:50:05;6.30;99.90
8463;DHT22;4268;52.506;13.462;2023-11-21T10:52:31;6.30;99.90
8463;DHT22;4268;52.506;13.462;2023-11-21T10:54:56;6.30;99.90
8463;DHT22;4268;52.506;13.462;2023-11-21T10:57:24;6.20;99.90
8463;DHT22;4268;52.506;13.462;2023-11-21T10:59:53;6.20;99.90
8463;DHT22;4268;52.506;13.462;2023-11-21T11:02:24;6.20;99.90
8463;DHT22;4268;52.506;13.462;2023-11-21T11:04:58;6.20;99.90
8463;DHT22;4268;52.506;13.462;2023-11-21T11:07:26;6.30;99.90
8463;DHT22;4268;52.506;13.462;2023-11-21T11:09:55;6.20;99.90
8463;DHT22;4268;52.506;13.462;2023-11-21T11:12:21;6.20;99.90
8463;DHT22;4268;52.506;13.462;2023-11-21T11:14:48;6.10;99.90
8463;DHT22;4268;52.506;13.462;2023-11-21T11:17:14;6.10;99.90
8463;DHT22;4268;52.506;13.462;2023-11-21T11:19:39;6.10;99.90
8463;DHT22;4268;52.506;13.462;2023-11-21T11:22:15;6.00;99.90
8463;DHT22;4268;52.506;13.462;2023-11-21T11:25:03;6.00;99.90
8463;DHT22;4268;52.506;13.462;2023-11-21T11:27:44;6.00;99.90
8463;DHT22;4268;52.506;13.462;2023-11-21T11:33:45;6.00;99.90
8463;DHT22;4268;52.506;13.462;2023-11-21T11:36:29;5.80;99.90
8463;DHT22;4268;52.506;13.462;2023-11-21T11:38:56;5.70;99.90
8463;DHT22;4268;52.506;13.462;2023-11-21T11:41:25;5.70;99.90
8463;DHT22;4268;52.506;13.462;2023-11-21T11:43:52;5.70;99.90
8463;DHT22;4268;52.506;13.462;2023-11-21T11:46:18;5.70;99.90
8463;DHT22;4268;52.506;13.462;2023-11-21T11:48:47;5.70;99.90
8463;DHT22;4268;52.506;13.462;2023-11-21T11:51:14;5.70;99.90
8463;DHT22;4268;52.506;13.462;2023-11-21T11:53:43;5.70;99.90
8463;DHT22;4268;52.506;13.462;2023-11-21T11:56:29;5.70;99.90
8463;DHT22;4268;52.506;13.462;2023-11-21T11:59:01;5.70;99.90
8463;DHT22;4268;52.506;13.462;2023-11-21T12:01:28;5.70;99.90
8463;DHT22;4268;52.506;13.462;2023-11-21T12:06:51;5.60;99.90
8463;DHT22;4268;52.506;13.462;2023-11-21T12:09:19;5.70;99.90
8463;DHT22;4268;52.506;13.462;2023-11-21T12:11:47;5.60;99.90
8463;DHT22;4268;52.506;13.462;2023-11-21T12:14:16;5.60;99.90
8463;DHT22;4268;52.506;13.462;2023-11-21T12:16:42;5.60;99.90
8463;DHT22;4268;52.506;13.462;2023-11-21T12:19:11;5.60;99.90
8463;DHT22;4268;52.506;13.462;2023-11-21T12:21:37;5.60;99.90
8463;DHT22;4268;52.506;13.462;2023-11-21T12:24:03;5.50;99.90
8463;DHT22;4268;52.506;13.462;2023-11-21T12:26:29;5.50;99.90
8463;DHT22;4268;52.506;13.462;2023-11-21T12:28:55;5.50;99.90
8463;DHT22;4268;52.506;13.462;2023-11-21T12:31:23;5.50;99.90
8463;DHT22;4268;52.506;13.462;2023-11-21T12:33:49;5.50;99.90
8463;DHT22;4268;52.506;13.462;2023-11-21T12:36:16;5.50;99.90
8463;DHT22;4268;52.506;13.462;2023-11-21T12:38:42;5.50;99.90
8463;DHT22;4268;52.506;13.462;2023-11-21T12:41:08;5.50;99.90
8463;DHT22;4268;52.506;13.462;2023-11-21T12:43:35;5.60;99.90
8463;DHT22;4268;52.506;13.462;2023-11-21T12:46:09;5.60;99.90
8463;DHT22;4268;52.506;13.462;2023-11-21T12:48:39;5.70;99.90
8463;DHT22;4268;52.506;13.462;2023-11-21T12:51:07;5.70;99.90
8463;DHT22;4268;52.506;13.462;2023-11-21T12:53:33;5.70;99.90
8463;DHT22;4268;52.506;13.462;2023-11-21T12:56:13;5.80;99.90
8463;DHT22;4268;52.506;13.462;2023-11-21T12:58:39;5.80;99.90
8463;DHT22;4268;52.506;13.462;2023-11-21T13:01:06;5.70;99.90
8463;DHT22;4268;52.506;13.462;2023-11-21T13:03:37;5.80;99.90
8463;DHT22;4268;52.506;13.462;2023-11-21T13:06:04;5.80;99.90
8463;DHT22;4268;52.506;13.462;2023-11-21T13:08:30;5.80;99.90
8463;DHT22;4268;52.506;13.462;2023-11-21T13:10:58;5.80;99.90
8463;DHT22;4268;52.506;13.462;2023-11-21T13:13:28;5.80;99.90
8463;DHT22;4268;52.506;13.462;2023-11-21T13:15:55;5.70;99.90
8463;DHT22;4268;52.506;13.462;2023-11-21T13:18:23;5.70;99.90
8463;DHT22;4268;52.506;13.462;2023-11-21T13:20:49;5.70;99.90
8463;DHT22;4268;52.506;13.462;2023-11-21T13:23:15;5.60;99.90
8463;DHT22;4268;52.506;13.462;2023-11-21T13:25:42;5.60;99.90
8463;DHT22;4268;52.506;13.462;2023-11-21T13:28:11;5.50;99.90
8463;DHT22;4268;52.506;13.462;2023-11-21T13:30:36;5.30;99.90
8463;DHT22;4268;52.506;13.462;2023-11-21T13:33:06;5.40;99.90
8463;DHT22;4268;52.506;13.462;2023-11-21T13:35:34;5.40;99.90
8463;DHT22;4268;52.506;13.462;2023-11-21T13:38:06;5.30;99.90
8463;DHT22;4268;52.506;13.462;2023-11-21T13:40:33;5.20;99.90
8463;DHT22;4268;52.506;13.462;2023-11-21T13:43:05;5.10;99.90
8463;DHT22;4268;52.506;13.462;2023-11-21T13:45:30;4.60;99.90
8463;DHT22;4268;52.506;13.462;2023-11-21T13:47:56;5.20;99.90
8463;DHT22;4268;52.506;13.462;2023-11-21T13:50:26;5.00;99.90
8463;DHT22;4268;52.506;13.462;2023-11-21T13:52:58;5.00;99.90
8463;DHT22;4268;52.506;13.462;2023-11-21T13:55:29;5.10;99.90
8463;DHT22;4268;52.506;13.462;2023-11-21T13:57:54;5.10;99.90
8463;DHT22;4268;52.506;13.462;2023-11-21T14:00:20;5.10;99.90
8463;DHT22;4268;52.506;13.462;2023-11-21T14:03:04;5.00;99.90
8463;DHT22;4268;52.506;13.462;2023-11-21T14:05:34;5.00;99.90
8463;DHT22;4268;52.506;13.462;2023-11-21T14:08:00;5.00;99.90
8463;DHT22;4268;52.506;13.462;2023-11-21T14:10:33;4.90;99.90
8463;DHT22;4268;52.506;13.462;2023-11-21T14:13:08;4.90;99.90
8463;DHT22;4268;52.506;13.462;2023-11-21T14:15:36;4.70;99.90
8463;DHT22;4268;52.506;13.462;2023-11-21T14:18:07;4.90;99.90
8463;DHT22;4268;52.506;13.462;2023-11-21T14:20:36;4.70;99.90
8463;DHT22;4268;52.506;13.462;2023-11-21T14:23:03;5.10;99.90
8463;DHT22;4268;52.506;13.462;2023-11-21T14:25:29;4.90;99.90
8463;DHT22;4268;52.506;13.462;2023-11-21T14:27:55;4.70;99.90
8463;DHT22;4268;52.506;13.462;2023-11-21T14:30:21;4.60;99.90
8463;DHT22;4268;52.506;13.462;2023-11-21T14:32:48;4.60;99.90
8463;DHT22;4268;52.506;13.462;2023-11-21T14:35:15;4.60;99.90
8463;DHT22;4268;52.506;13.462;2023-11-21T14:37:41;5.70;99.90
8463;DHT22;4268;52.506;13.462;2023-11-21T14:40:07;4.30;99.90
8463;DHT22;4268;52.506;13.462;2023-11-21T14:42:33;4.40;99.90
8463;DHT22;4268;52.506;13.462;2023-11-21T14:44:59;4.30;99.90
8463;DHT22;4268;52.506;13.462;2023-11-21T14:47:29;4.40;99.90
8463;DHT22;4268;52.506;13.462;2023-11-21T14:49:54;3.90;99.90
8463;DHT22;4268;52.506;13.462;2023-11-21T14:52:22;4.30;99.90
8463;DHT22;4268;52.506;13.462;2023-11-21T14:55:01;4.20;99.90
8463;DHT22;4268;52.506;13.462;2023-11-21T14:57:45;4.30;99.90
8463;DHT22;4268;52.506;13.462;2023-11-21T15:00:18;4.20;99.90
8463;DHT22;4268;52.506;13.462;2023-11-21T15:02:59;4.20;99.90
8463;DHT22;4268;52.506;13.462;2023-11-21T15:05:24;4.10;99.90
8463;DHT22;4268;52.506;13.462;2023-11-21T15:07:52;4.10;99.90
8463;DHT22;4268;52.506;13.462;2023-11-21T15:10:21;4.60;99.90
8463;DHT22;4268;52.506;13.462;2023-11-21T15:12:54;4.10;99.90
8463;DHT22;4268;52.506;13.462;2023-11-21T15:15:20;4.10;99.90
8463;DHT22;4268;52.506;13.462;2023-11-21T15:17:46;4.10;99.90
8463;DHT22;4268;52.506;13.462;2023-11-21T15:20:13;4.10;99.90
8463;DHT22;4268;52.506;13.462;2023-11-21T15:22:44;4.10;99.90
8463;DHT22;4268;52.506;13.462;2023-11-21T15:25:10;4.10;99.90
8463;DHT22;4268;52.506;13.462;2023-11-21T15:27:35;4.00;99.90
8463;DHT22;4268;52.506;13.462;2023-11-21T15:30:02;4.00;99.90
8463;DHT22;4268;52.506;13.462;2023-11-21T15:32:28;4.10;99.90
8463;DHT22;4268;52.506;13.462;2023-11-21T15:34:54;4.00;99.90
8463;DHT22;4268;52.506;13.462;2023-11-21T15:37:19;3.90;99.90
8463;DHT22;4268;52.506;13.462;2023-11-21T15:39:45;4.00;99.90
8463;DHT22;4268;52.506;13.462;2023-11-21T15:42:11;4.00;99.90
8463;DHT22;4268;52.506;13.462;2023-11-21T15:44:37;4.00;99.90
8463;DHT22;4268;52.506;13.462;2023-11-21T15:47:04;4.00;99.90
8463;DHT22;4268;52.506;13.462;2023-11-21T15:49:31;4.00;99.90
8463;DHT22;4268;52.506;13.462;2023-11-21T15:51:59;4.40;99.90
8463;DHT22;4268;52.506;13.462;2023-11-21T15:54:26;4.00;99.90
8463;DHT22;4268;52.506;13.462;2023-11-21T15:56:53;4.00;99.90
8463;DHT22;4268;52.506;13.462;2023-11-21T15:59:21;4.00;99.90
8463;DHT22;4268;52.506;13.462;2023-11-21T16:01:49;3.90;99.90
8463;DHT22;4268;52.506;13.462;2023-11-21T16:04:15;3.80;99.90
8463;DHT22;4268;52.506;13.462;2023-11-21T16:06:43;3.70;99.90
8463;DHT22;4268;52.506;13.462;2023-11-21T16:09:08;3.70;99.90
8463;DHT22;4268;52.506;13.462;2023-11-21T16:12:00;3.70;99.90